createdAt,value
2018-07-02T00:00:22.668Z,0.60
2018-07-02T00:02:50.218Z,0.60
2018-07-02T00:05:17.763Z,0.50
2018-07-02T00:07:45.416Z,0.77
2018-07-02T00:10:13.291Z,0.60
2018-07-02T00:12:40.854Z,0.37
2018-07-02T00:15:08.458Z,0.63
2018-07-02T00:17:36.243Z,0.40
2018-07-02T00:20:05.003Z,0.53
2018-07-02T00:22:32.599Z,0.47
2018-07-02T00:25:00.155Z,0.57
2018-07-02T00:27:27.963Z,0.40
2018-07-02T00:29:55.581Z,0.50
2018-07-02T00:32:23.118Z,0.40
2018-07-02T00:34:50.782Z,0.67
2018-07-02T00:37:18.330Z,0.90
2018-07-02T00:39:46.011Z,0.47
2018-07-02T00:42:13.563Z,0.50
2018-07-02T00:44:41.114Z,0.60
2018-07-02T00:47:08.655Z,0.60
2018-07-02T00:49:36.434Z,0.47
2018-07-02T00:52:04.118Z,0.50
2018-07-02T00:54:31.824Z,0.50
2018-07-02T00:56:59.411Z,0.60
2018-07-02T00:59:26.955Z,0.57
2018-07-02T01:01:54.695Z,0.40
2018-07-02T01:04:22.221Z,0.60
2018-07-02T01:06:49.816Z,0.50
2018-07-02T01:09:17.395Z,0.40
2018-07-02T01:11:45.103Z,0.33
2018-07-02T01:14:12.643Z,0.50
2018-07-02T01:16:40.228Z,0.50
2018-07-02T01:19:07.886Z,0.50
2018-07-02T01:21:35.560Z,0.60
2018-07-02T01:24:03.116Z,0.50
2018-07-02T01:26:30.719Z,0.40
2018-07-02T01:28:58.340Z,0.40
2018-07-02T01:31:26.006Z,0.53
2018-07-02T01:33:53.521Z,0.40
2018-07-02T01:36:21.288Z,0.40
2018-07-02T01:38:48.858Z,0.40
2018-07-02T01:41:17.118Z,0.47
2018-07-02T01:43:44.655Z,0.53
2018-07-02T01:46:12.182Z,0.60
2018-07-02T01:48:39.729Z,0.50
2018-07-02T01:51:07.287Z,0.30
2018-07-02T01:53:34.910Z,0.47
2018-07-02T01:56:02.620Z,0.80
2018-07-02T01:58:30.219Z,0.47
2018-07-02T02:00:57.764Z,0.50
2018-07-02T02:03:25.430Z,0.50
2018-07-02T02:05:52.988Z,0.40
2018-07-02T02:08:20.630Z,0.40
2018-07-02T02:10:48.693Z,0.40
2018-07-02T02:13:16.306Z,0.20
2018-07-02T02:15:43.979Z,0.40
2018-07-02T02:18:11.516Z,0.57
2018-07-02T02:20:39.194Z,0.50
2018-07-02T02:23:06.727Z,0.40
2018-07-02T02:25:34.301Z,0.50
2018-07-02T02:28:01.849Z,0.60
2018-07-02T02:30:29.438Z,0.50
2018-07-02T02:32:56.967Z,0.60
2018-07-02T02:35:24.540Z,0.70
2018-07-02T02:37:52.147Z,0.50
2018-07-02T02:40:19.696Z,0.55
2018-07-02T02:42:47.371Z,0.40
2018-07-02T02:45:14.946Z,0.50
2018-07-02T02:47:42.486Z,0.50
2018-07-02T02:50:10.031Z,0.50
2018-07-02T02:52:37.676Z,0.50
2018-07-02T02:55:05.347Z,0.60
2018-07-02T02:57:32.894Z,0.50
2018-07-02T03:00:00.486Z,0.60
2018-07-02T03:02:28.094Z,0.50
2018-07-02T03:04:55.763Z,0.67
2018-07-02T03:07:23.371Z,0.50
2018-07-02T03:09:50.936Z,0.50
2018-07-02T03:12:18.467Z,0.50
2018-07-02T03:14:45.998Z,0.67
2018-07-02T03:17:13.546Z,0.70
2018-07-02T03:19:41.084Z,0.50
2018-07-02T03:22:08.627Z,0.57
2018-07-02T03:24:36.167Z,0.60
2018-07-02T03:27:03.747Z,0.70
2018-07-02T03:29:31.307Z,0.60
2018-07-02T03:31:58.923Z,0.80
2018-07-02T03:34:26.538Z,0.40
2018-07-02T03:36:54.156Z,0.43
2018-07-02T03:39:21.703Z,0.40
2018-07-02T03:41:49.264Z,0.77
2018-07-02T03:44:16.827Z,0.60
2018-07-02T03:46:44.361Z,0.43
2018-07-02T03:49:11.918Z,0.73
2018-07-02T03:51:39.606Z,0.50
2018-07-02T03:54:07.171Z,0.60
2018-07-02T03:56:34.722Z,0.57
2018-07-02T03:59:02.276Z,0.50
2018-07-02T04:01:29.804Z,0.50
2018-07-02T04:03:57.319Z,0.70
2018-07-02T04:06:24.854Z,0.70
2018-07-02T04:08:52.413Z,0.67
2018-07-02T04:11:19.928Z,0.57
2018-07-02T04:13:47.619Z,0.60
2018-07-02T04:16:15.158Z,0.90
2018-07-02T04:18:42.793Z,0.60
2018-07-02T04:21:10.342Z,0.85
2018-07-02T04:23:37.857Z,1.27
2018-07-02T04:26:05.400Z,1.17
2018-07-02T04:28:32.966Z,1.50
2018-07-02T04:31:00.504Z,1.10
2018-07-02T04:33:28.046Z,1.10
2018-07-02T04:35:55.579Z,1.10
2018-07-02T04:38:23.118Z,1.00
2018-07-02T04:40:50.727Z,1.20
2018-07-02T04:43:19.029Z,1.20
2018-07-02T04:45:46.604Z,0.88
2018-07-02T04:48:14.209Z,0.90
2018-07-02T04:50:42.588Z,0.80
2018-07-02T04:53:10.291Z,0.80
2018-07-02T04:55:37.855Z,0.62
2018-07-02T04:58:05.446Z,0.90
2018-07-02T05:00:33.116Z,1.00
2018-07-02T05:03:00.671Z,0.90
2018-07-02T05:05:28.238Z,0.65
2018-07-02T05:07:56.159Z,1.60
2018-07-02T05:10:23.744Z,1.17
2018-07-02T05:12:51.363Z,1.00
2018-07-02T05:15:19.031Z,0.90
2018-07-02T05:17:47.373Z,1.00
2018-07-02T05:20:14.946Z,1.10
2018-07-02T05:22:42.441Z,1.12
2018-07-02T05:25:10.062Z,0.80
2018-07-02T05:27:37.564Z,1.00
2018-07-02T05:30:05.138Z,1.30
2018-07-02T05:32:32.655Z,1.12
2018-07-02T05:35:00.197Z,1.10
2018-07-02T05:37:27.754Z,1.45
2018-07-02T05:39:55.339Z,1.40
2018-07-02T05:42:22.876Z,1.30
2018-07-02T05:44:50.408Z,1.07
2018-07-02T05:47:17.934Z,1.10
2018-07-02T05:49:45.658Z,0.90
2018-07-02T05:52:13.190Z,0.95
2018-07-02T05:54:40.857Z,0.90
2018-07-02T05:57:08.264Z,1.00
2018-07-02T05:59:35.803Z,1.00
2018-07-02T06:02:03.355Z,0.98
2018-07-02T06:04:30.908Z,1.12
2018-07-02T06:06:58.426Z,1.05
2018-07-02T06:09:25.945Z,1.00
2018-07-02T06:11:53.626Z,0.90
2018-07-02T06:14:21.263Z,1.02
2018-07-02T06:16:48.795Z,1.30
2018-07-02T06:19:16.319Z,1.20
2018-07-02T06:21:43.843Z,1.92
2018-07-02T06:24:11.390Z,2.12
2018-07-02T06:26:38.887Z,1.80
2018-07-02T06:29:06.432Z,2.62
2018-07-02T06:31:33.983Z,1.87
2018-07-02T06:34:01.609Z,0.68
2018-07-02T06:36:29.121Z,0.60
2018-07-02T06:38:56.622Z,0.80
2018-07-02T06:41:24.135Z,0.72
2018-07-02T06:43:51.642Z,0.65
2018-07-02T06:46:19.192Z,0.80
2018-07-02T06:48:46.739Z,0.50
2018-07-02T06:51:14.255Z,0.60
2018-07-02T06:53:41.807Z,0.70
2018-07-02T06:56:09.442Z,0.65
2018-07-02T06:58:37.000Z,0.80
2018-07-02T07:01:04.495Z,0.50
2018-07-02T07:03:32.040Z,0.50
2018-07-02T07:05:59.550Z,0.75
2018-07-02T07:08:27.094Z,0.50
2018-07-02T07:10:54.749Z,0.60
2018-07-02T07:13:22.386Z,0.70
2018-07-02T07:15:49.912Z,0.50
2018-07-02T07:18:17.435Z,0.57
2018-07-02T07:20:45.104Z,0.55
2018-07-02T07:23:12.624Z,0.70
2018-07-02T07:25:40.234Z,0.70
2018-07-02T07:28:07.862Z,0.62
2018-07-02T07:30:35.455Z,0.85
2018-07-02T07:33:03.033Z,0.57
2018-07-02T07:35:30.647Z,0.65
2018-07-02T07:37:58.167Z,0.55
2018-07-02T07:40:25.875Z,0.80
2018-07-02T07:42:53.568Z,0.90
2018-07-02T07:45:21.155Z,0.70
2018-07-02T07:47:48.706Z,0.60
2018-07-02T07:50:16.335Z,0.60
2018-07-02T07:52:44.228Z,0.50
2018-07-02T07:55:11.923Z,0.60
2018-07-02T07:57:40.535Z,0.70
2018-07-02T08:00:08.048Z,0.75
2018-07-02T08:02:36.308Z,0.53
2018-07-02T08:05:04.627Z,0.70
2018-07-02T08:07:32.194Z,0.70
2018-07-02T08:10:00.565Z,0.55
2018-07-02T08:12:28.321Z,0.70
2018-07-02T08:14:55.905Z,0.75
2018-07-02T08:17:23.546Z,0.57
2018-07-02T08:19:51.181Z,0.80
2018-07-02T08:22:18.743Z,0.85
2018-07-02T08:24:46.359Z,0.90
2018-07-02T08:27:14.008Z,0.62
2018-07-02T08:29:41.596Z,0.53
2018-07-02T08:32:09.239Z,0.88
2018-07-02T08:34:36.858Z,0.80
2018-07-02T08:37:04.395Z,0.60
2018-07-02T08:39:32.135Z,0.70
2018-07-02T08:41:59.643Z,0.70
2018-07-02T08:44:27.303Z,0.68
2018-07-02T08:46:54.937Z,0.60
2018-07-02T08:49:22.485Z,0.80
2018-07-02T08:51:50.119Z,1.00
2018-07-02T08:54:17.686Z,0.60
2018-07-02T08:56:45.270Z,0.60
2018-07-02T08:59:12.891Z,0.90
2018-07-02T09:01:40.650Z,0.47
2018-07-02T09:04:08.192Z,0.70
2018-07-02T09:06:35.783Z,0.70
2018-07-02T09:09:05.512Z,0.70
2018-07-02T09:11:33.272Z,0.57
2018-07-02T09:14:00.594Z,0.60
2018-07-02T09:16:28.375Z,0.68
2018-07-02T09:18:56.035Z,0.70
2018-07-02T09:21:23.555Z,0.55
2018-07-02T09:23:51.159Z,0.60
2018-07-02T09:26:18.632Z,0.60
2018-07-02T09:28:46.273Z,0.70
2018-07-02T09:31:13.826Z,0.60
2018-07-02T09:33:41.375Z,0.75
2018-07-02T09:36:09.026Z,0.80
2018-07-02T09:38:36.631Z,0.60
2018-07-02T09:41:04.201Z,0.80
2018-07-02T09:43:31.732Z,0.70
2018-07-02T09:45:59.246Z,0.70
2018-07-02T09:48:26.782Z,0.50
2018-07-02T09:50:54.459Z,0.60
2018-07-02T09:53:21.982Z,0.75
2018-07-02T09:55:49.534Z,0.72
2018-07-02T09:58:17.311Z,0.73
2018-07-02T10:00:44.826Z,0.60
2018-07-02T10:03:12.518Z,0.75
2018-07-02T10:05:40.095Z,0.60
2018-07-02T10:08:07.588Z,0.98
2018-07-02T10:10:35.157Z,0.60
2018-07-02T10:13:02.683Z,0.57
2018-07-02T10:15:30.271Z,0.60
2018-07-02T10:17:58.146Z,0.70
2018-07-02T10:20:26.059Z,0.60
2018-07-02T10:22:53.880Z,0.70
2018-07-02T10:25:21.427Z,0.70
2018-07-02T10:27:48.973Z,0.80
2018-07-02T10:30:16.524Z,0.70
2018-07-02T10:32:44.075Z,0.80
2018-07-02T10:35:11.602Z,0.77
2018-07-02T10:37:39.188Z,0.90
2018-07-02T10:40:07.506Z,0.60
2018-07-02T10:42:36.314Z,0.60
2018-07-02T10:45:03.971Z,0.85
2018-07-02T10:47:31.565Z,0.80
2018-07-02T10:49:59.074Z,0.60
2018-07-02T10:52:26.622Z,1.00
2018-07-02T10:54:54.158Z,0.72
2018-07-02T10:57:21.687Z,0.65
2018-07-02T10:59:49.278Z,0.50
2018-07-02T11:02:16.939Z,0.88
2018-07-02T11:04:44.473Z,0.60
2018-07-02T11:07:11.970Z,0.60
2018-07-02T11:09:39.484Z,0.70
2018-07-02T11:12:07.096Z,0.78
2018-07-02T11:14:34.634Z,0.77
2018-07-02T11:17:02.235Z,0.80
2018-07-02T11:19:29.854Z,0.60
2018-07-02T11:21:57.390Z,0.70
2018-07-02T11:24:25.019Z,0.70
2018-07-02T11:26:52.654Z,0.70
2018-07-02T11:29:20.188Z,0.60
2018-07-02T11:31:47.858Z,0.67
2018-07-02T11:34:15.351Z,0.60
2018-07-02T11:36:42.964Z,0.57
2018-07-02T11:39:11.463Z,0.60
2018-07-02T11:41:39.168Z,0.70
2018-07-02T11:44:06.894Z,0.70
2018-07-02T11:46:34.758Z,0.60
2018-07-02T11:49:02.419Z,0.57
2018-07-02T11:51:30.255Z,0.50
2018-07-02T11:53:57.786Z,0.70
2018-07-02T11:56:25.343Z,0.50
2018-07-02T11:58:52.971Z,0.50
2018-07-02T12:01:20.506Z,0.50
2018-07-02T12:03:48.123Z,0.60
2018-07-02T12:06:15.678Z,0.60
2018-07-02T12:08:43.296Z,0.63
2018-07-02T12:11:10.908Z,0.70
2018-07-02T12:13:38.449Z,0.70
2018-07-02T12:16:06.990Z,0.70
2018-07-02T12:18:34.571Z,0.50
2018-07-02T12:21:02.090Z,0.80
2018-07-02T12:23:29.602Z,0.57
2018-07-02T12:25:57.123Z,0.70
2018-07-02T12:28:24.730Z,0.77
2018-07-02T12:30:52.374Z,0.60
2018-07-02T12:33:19.955Z,0.60
2018-07-02T12:35:47.495Z,0.70
2018-07-02T12:38:15.014Z,0.70
2018-07-02T12:40:42.675Z,0.63
2018-07-02T12:43:10.271Z,0.70
2018-07-02T12:45:37.794Z,0.60
2018-07-02T12:48:05.311Z,0.80
2018-07-02T12:50:32.830Z,0.60
2018-07-02T12:53:00.331Z,0.83
2018-07-02T12:55:27.811Z,0.63
2018-07-02T12:57:55.357Z,0.63
2018-07-02T13:00:22.866Z,0.70
2018-07-02T13:02:50.468Z,0.50
2018-07-02T13:05:18.014Z,0.60
2018-07-02T13:07:45.546Z,0.80
2018-07-02T13:10:13.079Z,0.70
2018-07-02T13:12:40.587Z,0.60
2018-07-02T13:15:08.203Z,0.78
2018-07-02T13:17:35.698Z,0.80
2018-07-02T13:20:03.655Z,0.80
2018-07-02T13:22:31.158Z,0.90
2018-07-02T13:24:58.711Z,0.80
2018-07-02T13:27:26.241Z,0.88
2018-07-02T13:29:53.763Z,0.75
2018-07-02T13:32:21.280Z,1.00
2018-07-02T13:34:49.294Z,0.75
2018-07-02T13:37:16.798Z,0.72
2018-07-02T13:39:44.298Z,0.72
2018-07-02T13:42:11.832Z,0.80
2018-07-02T13:44:39.378Z,0.82
2018-07-02T13:47:06.979Z,0.70
2018-07-02T13:49:34.582Z,0.65
2018-07-02T13:52:04.046Z,0.80
2018-07-02T13:54:31.538Z,0.70
2018-07-02T13:56:59.063Z,0.80
2018-07-02T13:59:26.572Z,0.72
2018-07-02T14:01:54.129Z,0.80
2018-07-02T14:04:21.636Z,0.80
2018-07-02T14:06:49.153Z,0.80
2018-07-02T14:09:16.676Z,0.90
2018-07-02T14:11:44.187Z,0.80
2018-07-02T14:14:11.890Z,1.00
2018-07-02T14:16:39.447Z,0.80
2018-07-02T14:19:07.017Z,0.60
2018-07-02T14:21:34.726Z,0.60
2018-07-02T14:24:02.233Z,0.65
2018-07-02T14:26:29.782Z,0.60
2018-07-02T14:28:57.283Z,0.80
2018-07-02T14:31:24.984Z,0.95
2018-07-02T14:33:52.493Z,0.90
2018-07-02T14:36:20.158Z,0.85
2018-07-02T14:38:47.711Z,0.80
2018-07-02T14:41:15.241Z,1.00
2018-07-02T14:43:42.759Z,0.90
2018-07-02T14:46:10.297Z,0.70
2018-07-02T14:48:37.806Z,0.70
2018-07-02T14:51:05.380Z,0.70
2018-07-02T14:53:32.834Z,1.00
2018-07-02T14:56:00.352Z,0.82
2018-07-02T14:58:27.920Z,0.95
2018-07-02T15:00:55.422Z,0.80
2018-07-02T15:03:22.976Z,1.00
2018-07-02T15:05:50.483Z,0.80
2018-07-02T15:08:18.013Z,0.70
2018-07-02T15:10:45.522Z,0.70
2018-07-02T15:13:13.039Z,0.80
2018-07-02T15:15:40.663Z,0.90
2018-07-02T15:18:08.269Z,0.85
2018-07-02T15:20:35.782Z,0.90
2018-07-02T15:23:03.392Z,1.10
2018-07-02T15:25:30.950Z,0.70
2018-07-02T15:27:58.521Z,0.62
2018-07-02T15:30:26.040Z,0.85
2018-07-02T15:32:53.575Z,0.80
2018-07-02T15:35:21.102Z,0.98
2018-07-02T15:37:48.768Z,0.80
2018-07-02T15:40:16.306Z,0.70
2018-07-02T15:42:43.881Z,0.95
2018-07-02T15:45:11.399Z,1.17
2018-07-02T15:47:38.891Z,0.93
2018-07-02T15:50:06.454Z,0.90
2018-07-02T15:52:34.096Z,1.20
2018-07-02T15:55:01.764Z,0.78
2018-07-02T15:57:29.186Z,0.78
2018-07-02T15:59:56.678Z,0.80
2018-07-02T16:02:24.391Z,1.22
2018-07-02T16:04:51.924Z,1.27
2018-07-02T16:07:19.454Z,1.15
2018-07-02T16:09:47.118Z,1.07
2018-07-02T16:12:15.042Z,0.80
2018-07-02T16:14:42.540Z,0.80
2018-07-02T16:17:10.190Z,0.75
2018-07-02T16:19:37.699Z,0.68
2018-07-02T16:22:05.378Z,0.80
2018-07-02T16:24:32.883Z,0.90
2018-07-02T16:27:00.418Z,1.30
2018-07-02T16:29:27.984Z,0.68
2018-07-02T16:31:55.503Z,0.80
2018-07-02T16:34:23.214Z,0.88
2018-07-02T16:36:50.874Z,1.10
2018-07-02T16:39:18.375Z,1.10
2018-07-02T16:41:45.921Z,0.68
2018-07-02T16:44:13.474Z,0.93
2018-07-02T16:46:41.020Z,0.72
2018-07-02T16:49:08.546Z,0.85
2018-07-02T16:51:36.058Z,1.00
2018-07-02T16:54:03.642Z,0.93
2018-07-02T16:56:31.792Z,1.00
2018-07-02T16:58:59.338Z,0.88
2018-07-02T17:01:26.910Z,1.50
2018-07-02T17:03:54.435Z,1.17
2018-07-02T17:06:22.077Z,0.80
2018-07-02T17:08:49.881Z,1.10
2018-07-02T17:11:17.515Z,0.75
2018-07-02T17:13:45.044Z,0.95
2018-07-02T17:16:12.760Z,1.10
2018-07-02T17:18:40.301Z,1.02
2018-07-02T17:21:08.067Z,0.90
2018-07-02T17:23:35.591Z,1.20
2018-07-02T17:26:03.327Z,0.90
2018-07-02T17:28:30.975Z,0.98
2018-07-02T17:30:58.529Z,0.82
2018-07-02T17:33:26.263Z,0.85
2018-07-02T17:35:54.020Z,1.00
2018-07-02T17:38:21.552Z,0.82
2018-07-02T17:40:49.090Z,0.93
2018-07-02T17:43:16.623Z,0.70
2018-07-02T17:45:44.140Z,1.00
2018-07-02T17:48:11.692Z,1.02
2018-07-02T17:50:39.199Z,1.20
2018-07-02T17:53:06.705Z,0.95
2018-07-02T17:55:34.254Z,0.85
2018-07-02T17:58:01.783Z,1.10
2018-07-02T18:00:29.332Z,1.00
2018-07-02T18:02:56.979Z,0.70
2018-07-02T18:05:24.541Z,0.80
2018-07-02T18:07:52.058Z,0.65
2018-07-02T18:10:19.570Z,0.70
2018-07-02T18:12:47.130Z,0.70
2018-07-02T18:15:14.624Z,0.80
2018-07-02T18:17:42.168Z,0.80
2018-07-02T18:20:09.714Z,0.85
2018-07-02T18:22:37.228Z,0.90
2018-07-02T18:25:04.790Z,0.60
2018-07-02T18:27:32.379Z,1.12
2018-07-02T18:30:00.012Z,0.72
2018-07-02T18:32:27.536Z,1.10
2018-07-02T18:34:55.054Z,0.85
2018-07-02T18:37:22.649Z,0.72
2018-07-02T18:39:50.175Z,1.10
2018-07-02T18:42:17.691Z,1.00
2018-07-02T18:44:45.214Z,0.90
2018-07-02T18:47:12.794Z,0.73
2018-07-02T18:49:40.338Z,0.80
2018-07-02T18:52:07.914Z,0.60
2018-07-02T18:54:35.445Z,0.70
2018-07-02T18:57:02.990Z,0.70
2018-07-02T18:59:30.510Z,0.70
2018-07-02T19:01:58.055Z,0.70
2018-07-02T19:04:25.694Z,4.30
2018-07-02T19:06:53.197Z,4.37
2018-07-02T19:09:20.760Z,8.13
2018-07-02T19:11:48.334Z,14.90
2018-07-02T19:14:15.943Z,6.50
2018-07-02T19:16:43.475Z,3.27
2018-07-02T19:19:11.010Z,2.17
2018-07-02T19:21:38.541Z,1.50
2018-07-02T19:24:06.090Z,1.50
2018-07-02T19:26:33.666Z,1.20
2018-07-02T19:29:01.179Z,1.47
2018-07-02T19:31:28.939Z,1.30
2018-07-02T19:33:56.482Z,1.20
2018-07-02T19:36:24.030Z,0.83
2018-07-02T19:38:51.547Z,0.70
2018-07-02T19:41:19.052Z,0.70
2018-07-02T19:43:46.566Z,0.90
2018-07-02T19:46:14.179Z,1.12
2018-07-02T19:48:41.720Z,1.03
2018-07-02T19:51:09.227Z,1.10
2018-07-02T19:53:36.775Z,1.00
2018-07-02T19:56:04.314Z,1.40
2018-07-02T19:58:31.864Z,1.00
2018-07-02T20:00:59.668Z,1.07
2018-07-02T20:03:27.194Z,1.00
2018-07-02T20:05:54.692Z,0.90
2018-07-02T20:08:22.198Z,0.70
2018-07-02T20:10:49.839Z,0.60
2018-07-02T20:13:17.945Z,0.60
2018-07-02T20:15:45.601Z,0.70
2018-07-02T20:18:13.091Z,0.73
2018-07-02T20:20:40.602Z,0.60
2018-07-02T20:23:08.128Z,0.93
2018-07-02T20:25:35.655Z,0.77
2018-07-02T20:28:03.203Z,0.80
2018-07-02T20:30:30.761Z,0.57
2018-07-02T20:32:58.307Z,1.02
2018-07-02T20:35:25.905Z,1.00
2018-07-02T20:37:53.636Z,0.50
2018-07-02T20:40:21.180Z,0.88
2018-07-02T20:42:48.699Z,0.80
2018-07-02T20:45:16.266Z,0.50
2018-07-02T20:47:43.776Z,0.50
2018-07-02T20:50:11.290Z,0.60
2018-07-02T20:52:38.977Z,0.67
2018-07-02T20:55:06.529Z,0.67
2018-07-02T20:57:34.084Z,0.60
2018-07-02T21:00:02.075Z,0.40
2018-07-02T21:02:30.699Z,0.90
2018-07-02T21:04:58.232Z,0.73
2018-07-02T21:07:25.843Z,0.80
2018-07-02T21:09:53.499Z,0.57
2018-07-02T21:12:21.190Z,0.70
2018-07-02T21:14:48.723Z,0.80
2018-07-02T21:17:16.259Z,0.70
2018-07-02T21:19:43.907Z,0.60
2018-07-02T21:22:11.420Z,0.63
2018-07-02T21:24:38.943Z,0.50
2018-07-02T21:27:06.486Z,0.50
2018-07-02T21:29:34.063Z,0.60
2018-07-02T21:32:01.567Z,0.70
2018-07-02T21:34:29.106Z,0.73
2018-07-02T21:36:56.634Z,0.60
2018-07-02T21:39:24.175Z,0.50
2018-07-02T21:41:51.671Z,0.50
2018-07-02T21:44:19.222Z,0.50
2018-07-02T21:46:46.863Z,0.70
2018-07-02T21:49:14.415Z,0.60
2018-07-02T21:51:42.056Z,0.80
2018-07-02T21:54:09.725Z,0.57
2018-07-02T21:56:37.283Z,0.70
2018-07-02T21:59:04.803Z,0.57
2018-07-02T22:01:32.456Z,0.60
2018-07-02T22:03:59.978Z,0.97
2018-07-02T22:06:27.583Z,0.57
2018-07-02T22:08:55.250Z,0.60
2018-07-02T22:11:22.802Z,0.63
2018-07-02T22:13:50.451Z,0.70
2018-07-02T22:16:18.003Z,0.70
2018-07-02T22:18:45.524Z,0.57
2018-07-02T22:21:13.097Z,0.80
2018-07-02T22:23:41.423Z,0.40
2018-07-02T22:26:09.018Z,0.87
2018-07-02T22:28:36.601Z,0.80
2018-07-02T22:31:04.159Z,0.60
2018-07-02T22:33:31.701Z,0.73
2018-07-02T22:35:59.255Z,0.70
2018-07-02T22:38:26.856Z,1.20
2018-07-02T22:40:54.398Z,0.60
2018-07-02T22:43:21.934Z,0.50
2018-07-02T22:45:49.503Z,0.70
2018-07-02T22:48:17.071Z,0.40
2018-07-02T22:50:44.686Z,0.57
2018-07-02T22:53:12.382Z,0.60
2018-07-02T22:55:45.502Z,0.60
2018-07-02T22:58:13.040Z,0.50
2018-07-02T23:00:40.863Z,0.63
2018-07-02T23:03:08.444Z,0.60
2018-07-02T23:05:35.993Z,0.77
2018-07-02T23:08:03.851Z,0.57
2018-07-02T23:10:31.486Z,0.77
2018-07-02T23:13:00.131Z,0.40
2018-07-02T23:15:27.651Z,0.77
2018-07-02T23:17:55.393Z,0.60
2018-07-02T23:20:23.180Z,0.73
2018-07-02T23:22:57.770Z,0.50
2018-07-02T23:25:25.999Z,0.40
2018-07-02T23:27:53.750Z,0.70
2018-07-02T23:30:21.499Z,0.40
2018-07-02T23:32:49.552Z,0.70
2018-07-02T23:35:17.919Z,0.90
2018-07-02T23:37:45.825Z,0.60
2018-07-02T23:40:13.764Z,0.60
2018-07-02T23:42:41.337Z,0.60
2018-07-02T23:45:08.991Z,0.80
2018-07-02T23:47:36.481Z,0.63
2018-07-02T23:50:04.123Z,0.50
2018-07-02T23:52:31.807Z,0.60
2018-07-02T23:54:59.330Z,0.60
2018-07-02T23:57:27.227Z,0.60
2018-07-02T23:59:54.750Z,0.67
